Time;durP1;ratioP1;P1;durP2;ratioP2;P2;SDS_P1;SDS_P2;PMS_P1;PMS_P2;Temp;Humidity;BMP_temperature;BMP_pressure;BME280_temperature;BME280_humidity;BME280_pressure;Samples;Min_cycle;Max_cycle;Signal;HPM_P1;HPM_P2
2023/08/08 00:01:05;;;;;;;8.18;3.90;;;;;;;18.94;100.00;-18536.63;5107114;28;20100;-78
2023/08/08 00:03:31;;;;;;;6.95;4.00;;;;;;;18.92;100.00;-18536.22;5107821;28;20043;-78
2023/08/08 00:05:56;;;;;;;7.10;3.67;;;;;;;18.88;100.00;-18535.00;5025272;28;20073;-78
2023/08/08 00:08:23;;;;;;;7.55;3.28;;;;;;;18.86;100.00;-18534.44;5036915;28;20106;-76
2023/08/08 00:10:48;;;;;;;5.28;3.38;;;;;;;18.87;100.00;-18534.72;5041308;28;20048;-78
2023/08/08 00:13:13;;;;;;;6.53;3.72;;;;;;;18.57;100.00;-18526.81;5028277;28;20057;-77
2023/08/08 00:15:39;;;;;;;6.03;3.70;;;;;;;18.51;100.00;-18525.03;5040187;28;20037;-78
2023/08/08 00:18:04;;;;;;;4.93;3.47;;;;;;;18.43;100.00;-18522.97;5035845;28;20041;-77
2023/08/08 00:20:30;;;;;;;6.28;3.25;;;;;;;18.31;100.00;-18519.84;5037475;28;20041;-78
2023/08/08 00:22:55;;;;;;;4.57;2.92;;;;;;;18.34;100.00;-18520.53;5036988;28;20183;-79
2023/08/08 00:25:20;;;;;;;3.60;2.10;;;;;;;18.23;100.00;-18517.66;5042080;28;20044;-80
2023/08/08 00:27:46;;;;;;;5.93;2.40;;;;;;;18.34;100.00;-18520.53;5039972;28;20420;-78
2023/08/08 00:30:13;;;;;;;4.75;2.30;;;;;;;18.08;100.00;-18513.72;5022975;28;20045;-77
2023/08/08 00:32:38;;;;;;;4.90;2.88;;;;;;;18.07;100.00;-18513.44;5038967;28;20568;-76
2023/08/08 00:35:04;;;;;;;5.15;2.55;;;;;;;18.07;100.00;-18513.44;5041518;28;20132;-78
2023/08/08 00:37:30;;;;;;;3.90;2.30;;;;;;;18.15;100.00;-18515.47;5077980;28;20045;-79
2023/08/08 00:39:55;;;;;;;4.63;3.10;;;;;;;18.23;100.00;-18517.66;5103234;28;20498;-77
2023/08/08 00:42:20;;;;;;;4.70;2.20;;;;;;;18.18;100.00;-18516.31;5098573;28;20123;-78
2023/08/08 00:44:46;;;;;;;4.82;2.83;;;;;;;18.12;100.00;-18514.66;5102889;28;20047;-78
2023/08/08 00:47:11;;;;;;;6.30;3.20;;;;;;;18.04;100.00;-18512.63;5102878;28;20047;-79
2023/08/08 00:49:37;;;;;;;8.93;3.08;;;;;;;18.05;100.00;-18512.91;5104880;28;20084;-77
2023/08/08 00:52:03;;;;;;;5.95;3.53;;;;;;;18.19;100.00;-18516.72;5103264;28;20539;-78
2023/08/08 00:54:30;;;;;;;4.57;3.50;;;;;;;18.16;100.00;-18515.91;5103552;28;20036;-79
2023/08/08 00:56:55;;;;;;;6.05;3.55;;;;;;;18.22;100.00;-18517.53;5107238;28;20627;-78
2023/08/08 00:59:21;;;;;;;5.85;3.67;;;;;;;18.35;100.00;-18520.81;5108529;28;20039;-78
2023/08/08 01:01:47;;;;;;;7.53;3.60;;;;;;;18.18;100.00;-18516.31;5086893;28;21006;-79
2023/08/08 01:04:12;;;;;;;7.60;3.85;;;;;;;18.24;100.00;-18518.06;5103244;28;20040;-79
2023/08/08 01:06:47;;;;;;;6.78;4.50;;;;;;;18.24;100.00;-18518.06;5099084;28;20578;-78
2023/08/08 01:09:44;;;;;;;8.50;4.50;;;;;;;18.06;100.00;-18513.16;5107883;28;20040;-79
2023/08/08 01:12:12;;;;;;;8.45;5.43;;;;;;;18.09;100.00;-18513.97;5066875;28;20043;-79
2023/08/08 01:14:40;;;;;;;9.70;6.07;;;;;;;18.19;100.00;-18516.56;5105293;28;20048;-80
2023/08/08 01:17:06;;;;;;;10.77;7.20;;;;;;;17.98;100.00;-18510.97;5102111;28;20101;-80
2023/08/08 01:19:34;;;;;;;10.70;7.35;;;;;;;18.00;100.00;-18511.53;5107814;28;20036;-78
2023/08/08 01:22:04;;;;;;;12.40;7.25;;;;;;;18.07;100.00;-18513.44;5106634;28;20036;-80
2023/08/08 01:24:32;;;;;;;11.15;8.02;;;;;;;18.18;100.00;-18516.44;5106579;28;20051;-79
2023/08/08 01:26:59;;;;;;;12.82;7.97;;;;;;;18.32;100.00;-18520.13;5101786;28;20047;-78
2023/08/08 01:29:25;;;;;;;13.52;9.10;;;;;;;18.15;100.00;-18515.63;5104595;27;20602;-77
2023/08/08 01:31:50;;;;;;;12.40;8.82;;;;;;;18.28;100.00;-18519.03;5100983;28;20119;-79
2023/08/08 01:34:16;;;;;;;12.57;8.68;;;;;;;18.31;100.00;-18519.72;5109081;28;20640;-80
2023/08/08 01:37:06;;;;;;;16.60;9.20;;;;;;;18.38;100.00;-18521.63;5101381;28;20043;-79
2023/08/08 01:39:32;;;;;;;16.65;9.90;;;;;;;18.26;100.00;-18518.47;5101388;28;20052;-80
2023/08/08 01:42:00;;;;;;;12.73;9.43;;;;;;;18.35;100.00;-18520.81;5106586;28;20046;-78
2023/08/08 01:44:26;;;;;;;12.50;8.70;;;;;;;18.39;100.00;-18521.91;5107671;28;20040;-77
2023/08/08 01:46:54;;;;;;;12.60;9.55;;;;;;;18.43;100.00;-18523.13;5108389;28;20139;-78
2023/08/08 01:49:20;;;;;;;14.15;10.10;;;;;;;18.39;100.00;-18521.91;5108190;28;20445;-80
2023/08/08 01:51:46;;;;;;;14.35;10.70;;;;;;;18.52;100.00;-18525.31;5104961;28;20039;-77
2023/08/08 01:54:11;;;;;;;15.05;9.50;;;;;;;18.41;100.00;-18522.44;5108267;28;20040;-77
2023/08/08 01:56:37;;;;;;;16.05;8.50;;;;;;;18.25;100.00;-18518.22;5109823;28;20038;-78
2023/08/08 01:59:02;;;;;;;15.70;9.65;;;;;;;18.21;100.00;-18517.13;5111954;28;20035;-80
2023/08/08 02:01:27;;;;;;;13.15;9.57;;;;;;;18.30;100.00;-18519.44;5110869;28;20031;-77
2023/08/08 02:03:53;;;;;;;15.27;8.45;;;;;;;18.09;100.00;-18513.84;5108187;28;20127;-80
2023/08/08 02:06:18;;;;;;;12.55;8.80;;;;;;;17.89;100.00;-18508.53;5105340;28;20138;-79
2023/08/08 02:08:45;;;;;;;16.25;9.93;;;;;;;17.72;100.00;-18504.16;5108982;28;20376;-76
2023/08/08 02:11:10;;;;;;;15.57;9.20;;;;;;;17.64;100.00;-18501.97;5107268;28;20172;-77
2023/08/08 02:13:36;;;;;;;16.55;9.40;;;;;;;17.71;100.00;-18503.88;5089253;28;20055;-80
2023/08/08 02:16:01;;;;;;;13.43;9.45;;;;;;;17.60;100.00;-18501.00;5103509;28;20099;-79
2023/08/08 02:18:26;;;;;;;13.77;9.98;;;;;;;17.81;100.00;-18506.63;5105573;28;20115;-77
2023/08/08 02:20:52;;;;;;;14.88;9.85;;;;;;;17.88;100.00;-18508.25;5101623;28;20467;-79
2023/08/08 02:23:18;;;;;;;14.65;8.48;;;;;;;17.81;100.00;-18506.47;5105663;28;20130;-79
2023/08/08 02:25:43;;;;;;;18.13;8.88;;;;;;;17.78;100.00;-18505.66;5099161;28;20138;-80
2023/08/08 02:28:09;;;;;;;12.98;8.27;;;;;;;17.87;100.00;-18508.13;5087433;28;20142;-78
2023/08/08 02:30:34;;;;;;;12.70;8.88;;;;;;;17.79;100.00;-18506.06;5101667;28;20063;-78
2023/08/08 02:33:00;;;;;;;18.48;9.93;;;;;;;17.83;100.00;-18506.88;5104140;28;20172;-78
2023/08/08 02:35:25;;;;;;;14.07;8.95;;;;;;;17.76;100.00;-18505.13;5104853;28;20407;-78
2023/08/08 02:37:51;;;;;;;12.38;9.48;;;;;;;17.75;100.00;-18504.84;5100807;28;20111;-77
2023/08/08 02:40:17;;;;;;;14.05;8.32;;;;;;;17.75;100.00;-18504.97;5104682;28;20051;-80
2023/08/08 02:42:42;;;;;;;16.90;10.23;;;;;;;17.90;100.00;-18508.81;5097926;28;20041;-79
2023/08/08 02:45:08;;;;;;;13.38;9.35;;;;;;;17.79;100.00;-18505.94;5085057;28;20036;-79
2023/08/08 02:47:33;;;;;;;16.35;9.60;;;;;;;17.96;100.00;-18510.56;5100618;28;20058;-79
2023/08/08 02:49:59;;;;;;;17.27;8.82;;;;;;;17.94;100.00;-18510.03;5101664;28;20165;-79
2023/08/08 02:52:24;;;;;;;14.30;9.35;;;;;;;17.76;100.00;-18505.25;5105154;28;20768;-78
2023/08/08 02:54:49;;;;;;;13.80;8.35;;;;;;;17.77;100.00;-18505.53;5102285;28;21148;-78
2023/08/08 02:57:15;;;;;;;13.88;9.13;;;;;;;17.66;100.00;-18502.50;5094501;28;20749;-80
2023/08/08 02:59:41;;;;;;;15.85;9.75;;;;;;;17.72;100.00;-18504.03;5100316;28;20043;-77
2023/08/08 03:02:06;;;;;;;16.20;9.55;;;;;;;17.61;100.00;-18501.16;5101119;28;20096;-79
2023/08/08 03:04:31;;;;;;;14.60;8.80;;;;;;;17.53;100.00;-18499.09;5095701;28;20040;-77
2023/08/08 03:06:57;;;;;;;12.18;8.35;;;;;;;17.54;100.00;-18499.25;5099699;28;20050;-79
2023/08/08 03:09:22;;;;;;;14.40;8.10;;;;;;;17.59;100.00;-18500.59;5103222;28;20444;-78
2023/08/08 03:11:48;;;;;;;12.80;8.88;;;;;;;17.45;100.00;-18496.91;5099262;28;20449;-79
2023/08/08 03:14:13;;;;;;;14.82;8.57;;;;;;;17.46;100.00;-18497.19;5099496;28;20049;-80
2023/08/08 03:16:39;;;;;;;14.70;9.35;;;;;;;17.65;100.00;-18502.09;5106061;28;20436;-78
2023/08/08 03:19:04;;;;;;;17.20;10.30;;;;;;;17.59;100.00;-18500.59;5108811;28;20043;-79
2023/08/08 03:21:29;;;;;;;13.73;8.63;;;;;;;17.48;100.00;-18497.75;5115012;28;20051;-80
2023/08/08 03:23:55;;;;;;;18.25;9.65;;;;;;;17.46;100.00;-18497.06;5113442;28;20051;-78
2023/08/08 03:26:20;;;;;;;14.80;7.78;;;;;;;17.61;100.00;-18501.16;5113980;28;20562;-77
2023/08/08 03:28:50;;;;;;;12.00;7.72;;;;;;;17.45;100.00;-18496.78;5115379;28;21187;-79
2023/08/08 03:31:16;;;;;;;12.52;8.43;;;;;;;17.57;100.00;-18500.06;5091035;28;20035;-76
2023/08/08 03:33:42;;;;;;;16.20;9.40;;;;;;;17.89;100.00;-18508.53;5109946;28;20043;-81
2023/08/08 03:36:07;;;;;;;16.48;9.48;;;;;;;17.64;100.00;-18501.84;5107992;28;20601;-80
2023/08/08 03:38:33;;;;;;;15.82;9.05;;;;;;;17.59;100.00;-18500.75;5111194;28;20039;-80
2023/08/08 03:40:58;;;;;;;14.38;8.55;;;;;;;17.67;100.00;-18502.78;5092017;28;20042;-78
2023/08/08 03:43:24;;;;;;;16.13;9.77;;;;;;;17.72;100.00;-18504.03;5109672;28;20040;-80
2023/08/08 03:45:49;;;;;;;15.88;8.65;;;;;;;17.71;100.00;-18503.88;5107518;28;20043;-79
2023/08/08 03:48:14;;;;;;;14.82;8.38;;;;;;;17.75;100.00;-18504.97;5108775;28;20042;-78
2023/08/08 03:50:40;;;;;;;16.35;8.50;;;;;;;17.83;100.00;-18506.88;5107444;28;20056;-79
2023/08/08 03:53:05;;;;;;;13.80;8.88;;;;;;;17.77;100.00;-18505.38;5109928;28;20403;-80
2023/08/08 03:55:32;;;;;;;11.38;7.40;;;;;;;17.54;100.00;-18499.38;5107511;28;20406;-79
2023/08/08 03:57:57;;;;;;;15.27;8.50;;;;;;;17.60;100.00;-18500.88;5108531;28;20075;-80
2023/08/08 04:00:22;;;;;;;16.02;9.38;;;;;;;17.67;100.00;-18502.78;5102623;28;20064;-79
2023/08/08 04:02:48;;;;;;;13.60;7.78;;;;;;;17.63;100.00;-18501.69;5105703;27;20175;-80
2023/08/08 04:05:13;;;;;;;13.88;8.85;;;;;;;17.93;100.00;-18509.75;5105760;28;20043;-80
2023/08/08 04:07:38;;;;;;;13.30;6.60;;;;;;;17.72;100.00;-18504.16;5103230;28;20121;-80
2023/08/08 04:10:04;;;;;;;13.13;7.38;;;;;;;17.89;100.00;-18508.66;5111157;28;20043;-80
2023/08/08 04:12:30;;;;;;;13.38;8.55;;;;;;;17.74;100.00;-18504.69;5108360;27;20040;-80
2023/08/08 04:14:55;;;;;;;13.23;7.25;;;;;;;17.64;100.00;-18501.97;5104239;27;20051;-78
2023/08/08 04:17:20;;;;;;;14.10;7.53;;;;;;;17.61;100.00;-18501.16;5088762;28;20043;-78
2023/08/08 04:19:46;;;;;;;10.88;7.28;;;;;;;17.57;100.00;-18500.06;5106914;28;20047;-78
2023/08/08 04:22:11;;;;;;;12.95;7.22;;;;;;;17.74;100.00;-18504.69;5104987;28;20104;-79
2023/08/08 04:24:38;;;;;;;13.20;6.55;;;;;;;17.56;100.00;-18499.94;5104892;28;20047;-79
2023/08/08 04:27:04;;;;;;;13.00;7.13;;;;;;;17.67;100.00;-18502.78;5088019;28;20044;-80
2023/08/08 04:29:29;;;;;;;14.38;7.47;;;;;;;17.60;100.00;-18500.88;5105684;28;20036;-80
2023/08/08 04:31:54;;;;;;;12.52;7.43;;;;;;;17.56;100.00;-18499.78;5087579;28;20115;-79
2023/08/08 04:34:20;;;;;;;14.60;7.28;;;;;;;17.63;100.00;-18501.69;5105063;28;20066;-78
2023/08/08 04:36:45;;;;;;;13.65;7.90;;;;;;;17.60;100.00;-18500.88;5085742;28;20458;-77
2023/08/08 04:39:10;;;;;;;13.60;8.75;;;;;;;17.60;100.00;-18500.88;5102972;28;20399;-76
2023/08/08 04:41:36;;;;;;;13.05;7.90;;;;;;;17.50;100.00;-18498.28;5101721;28;20040;-78
2023/08/08 04:44:01;;;;;;;13.85;8.52;;;;;;;17.63;100.00;-18501.56;5100381;28;20039;-78
2023/08/08 04:46:26;;;;;;;14.02;8.88;;;;;;;17.72;100.00;-18504.16;5102035;27;20047;-78
2023/08/08 04:48:52;;;;;;;15.70;9.52;;;;;;;17.72;100.00;-18504.16;5105664;28;20067;-77
2023/08/08 04:51:17;;;;;;;12.90;8.18;;;;;;;17.62;100.00;-18501.28;5104043;28;20044;-78
2023/08/08 04:53:42;;;;;;;16.42;9.38;;;;;;;17.66;100.00;-18502.50;5107414;28;20063;-80
2023/08/08 04:56:08;;;;;;;14.48;8.95;;;;;;;17.70;100.00;-18503.63;5107056;28;20043;-78
2023/08/08 04:58:33;;;;;;;13.70;8.13;;;;;;;17.54;100.00;-18499.38;5106797;28;20036;-79
2023/08/08 05:00:59;;;;;;;15.70;8.50;;;;;;;17.51;100.00;-18498.44;5104290;28;20184;-77
2023/08/08 05:03:24;;;;;;;19.60;8.95;;;;;;;17.50;100.00;-18498.16;5106916;28;20044;-78
2023/08/08 05:05:49;;;;;;;18.52;9.40;;;;;;;17.56;100.00;-18499.94;5095462;28;20048;-80
2023/08/08 05:08:15;;;;;;;15.20;8.63;;;;;;;17.51;100.00;-18498.44;5104751;28;20044;-77
2023/08/08 05:10:40;;;;;;;28.63;11.35;;;;;;;17.71;100.00;-18503.75;5102333;28;20039;-78
2023/08/08 05:13:06;;;;;;;15.65;10.32;;;;;;;17.76;100.00;-18505.25;5098216;28;20119;-77
2023/08/08 05:15:31;;;;;;;19.05;10.95;;;;;;;17.82;100.00;-18506.75;5079800;28;20038;-77
2023/08/08 05:17:57;;;;;;;18.48;9.73;;;;;;;17.81;100.00;-18506.47;5087779;28;20051;-77
2023/08/08 05:20:22;;;;;;;19.70;10.48;;;;;;;17.82;100.00;-18506.75;5098489;28;20055;-77
2023/08/08 05:22:48;;;;;;;17.00;11.95;;;;;;;17.92;100.00;-18509.34;5102902;28;20546;-78
2023/08/08 05:25:13;;;;;;;17.13;9.88;;;;;;;17.87;100.00;-18508.13;5105518;28;20510;-79
2023/08/08 05:27:39;;;;;;;18.42;10.35;;;;;;;17.93;100.00;-18509.63;5104787;28;20431;-78
2023/08/08 05:30:06;;;;;;;17.95;10.85;;;;;;;17.83;100.00;-18506.88;5088279;28;20043;-76
2023/08/08 05:32:31;;;;;;;19.80;10.88;;;;;;;17.85;100.00;-18507.44;5104347;28;20905;-78
2023/08/08 05:34:57;;;;;;;19.40;11.38;;;;;;;17.85;100.00;-18507.56;5102830;28;20171;-76
2023/08/08 05:37:23;;;;;;;21.13;10.85;;;;;;;17.98;100.00;-18510.97;5104200;28;20534;-79
2023/08/08 05:39:49;;;;;;;18.70;9.60;;;;;;;17.97;100.00;-18510.72;5103716;28;20074;-77
2023/08/08 05:42:14;;;;;;;19.42;11.82;;;;;;;18.02;100.00;-18512.06;5087408;28;20071;-78
2023/08/08 05:44:44;;;;;;;19.65;9.98;;;;;;;17.94;100.00;-18510.03;5106043;28;20039;-78
2023/08/08 05:47:09;;;;;;;;;;;;;;;18.24;100.00;-18517.94;5109268;28;20043;-76
2023/08/08 05:49:34;;;;;;;18.45;12.15;;;;;;;18.15;100.00;-18515.63;5109952;28;19919;-78
2023/08/08 05:52:01;;;;;;;17.45;11.65;;;;;;;18.20;100.00;-18516.97;5101117;28;20046;-77
2023/08/08 05:54:27;;;;;;;17.88;11.57;;;;;;;18.02;100.00;-18512.22;5082269;28;20134;-78
2023/08/08 05:56:53;;;;;;;18.20;11.55;;;;;;;17.89;100.00;-18508.53;5103063;28;20045;-79
2023/08/08 05:59:18;;;;;;;19.30;10.20;;;;;;;18.00;100.00;-18511.53;5104357;28;20462;-77
2023/08/08 06:01:44;;;;;;;18.70;10.38;;;;;;;18.06;100.00;-18513.03;5102901;28;20490;-78
2023/08/08 06:04:09;;;;;;;20.98;11.88;;;;;;;18.09;100.00;-18513.84;5105196;28;20043;-78
2023/08/08 06:06:35;;;;;;;19.23;12.10;;;;;;;18.12;100.00;-18514.66;5104167;28;20051;-78
2023/08/08 06:09:00;;;;;;;21.52;11.52;;;;;;;18.00;100.00;-18511.53;5100951;28;20044;-79
2023/08/08 06:11:25;;;;;;;23.02;11.95;;;;;;;17.97;100.00;-18510.72;5104954;28;20449;-77
2023/08/08 06:13:51;;;;;;;22.73;11.25;;;;;;;18.06;100.00;-18513.03;5095813;28;20055;-78
2023/08/08 06:16:18;;;;;;;23.20;11.88;;;;;;;18.16;100.00;-18515.91;5102750;28;20119;-78
2023/08/08 06:18:43;;;;;;;20.77;11.98;;;;;;;18.21;100.00;-18517.25;5101329;28;20047;-77
2023/08/08 06:21:09;;;;;;;17.67;10.73;;;;;;;18.27;100.00;-18518.91;5080560;28;20074;-78
2023/08/08 06:23:34;;;;;;;16.65;10.73;;;;;;;18.37;100.00;-18521.34;5093761;28;20487;-77
2023/08/08 06:26:00;;;;;;;22.02;11.20;;;;;;;18.41;100.00;-18522.44;5103309;28;20398;-79
2023/08/08 06:28:25;;;;;;;21.05;11.23;;;;;;;18.34;100.00;-18520.53;5103278;28;20541;-77
2023/08/08 06:30:50;;;;;;;23.90;10.57;;;;;;;18.56;100.00;-18526.53;5101140;28;20043;-77
2023/08/08 06:33:16;;;;;;;19.48;10.88;;;;;;;18.56;100.00;-18526.53;5106531;28;20051;-78
2023/08/08 06:35:41;;;;;;;21.35;10.40;;;;;;;18.61;100.00;-18527.88;5102518;28;20040;-78
2023/08/08 06:38:08;;;;;;;19.35;12.45;;;;;;;18.83;100.00;-18533.63;5104672;28;20442;-77
2023/08/08 06:40:34;;;;;;;23.73;12.30;;;;;;;18.73;100.00;-18531.03;5099217;28;20051;-77
2023/08/08 06:42:59;;;;;;;19.25;12.23;;;;;;;18.67;100.00;-18529.38;5102089;28;20039;-77
2023/08/08 06:45:24;;;;;;;21.10;11.10;;;;;;;18.61;100.00;-18527.88;5101792;28;20050;-76
2023/08/08 06:47:50;;;;;;;24.58;11.38;;;;;;;18.65;100.00;-18528.84;5097374;28;20352;-78
2023/08/08 06:50:16;;;;;;;20.35;11.50;;;;;;;18.75;100.00;-18531.56;5097314;28;20036;-77
2023/08/08 06:52:41;;;;;;;21.98;11.25;;;;;;;19.02;100.00;-18538.66;5102389;28;20039;-76
2023/08/08 06:55:07;;;;;;;20.85;11.23;;;;;;;18.80;100.00;-18532.81;5102355;28;20548;-78
2023/08/08 06:57:33;;;;;;;20.63;10.88;;;;;;;18.86;100.00;-18534.56;5100604;28;20036;-77
2023/08/08 06:59:59;;;;;;;21.75;11.65;;;;;;;18.69;100.00;-18529.94;5100938;28;20039;-77
2023/08/08 07:02:24;;;;;;;17.67;10.90;;;;;;;18.75;100.00;-18531.44;5103699;28;20043;-78
2023/08/08 07:04:50;;;;;;;23.35;11.40;;;;;;;18.84;100.00;-18533.91;5103474;28;20044;-77
2023/08/08 07:07:15;;;;;;;24.52;11.90;;;;;;;18.82;100.00;-18533.34;5101109;28;20047;-78
2023/08/08 07:09:41;;;;;;;20.42;11.57;;;;;;;18.77;100.00;-18532.00;5097200;28;20054;-79
2023/08/08 07:12:07;;;;;;;21.38;13.77;;;;;;;18.94;100.00;-18536.75;5102477;28;20070;-78
2023/08/08 07:14:32;;;;;;;23.55;13.88;;;;;;;19.02;100.00;-18538.81;5100652;28;20032;-79
2023/08/08 07:16:58;;;;;;;20.98;11.57;;;;;;;19.10;100.00;-18540.97;5102947;28;20199;-77
2023/08/08 07:19:24;;;;;;;22.80;11.70;;;;;;;19.39;100.00;-18548.75;5105144;28;20493;-77
2023/08/08 07:21:49;;;;;;;19.08;11.57;;;;;;;19.39;100.00;-18548.75;5102033;28;20039;-77
2023/08/08 07:24:14;;;;;;;22.08;11.30;;;;;;;19.39;100.00;-18548.59;5104223;28;20054;-77
2023/08/08 07:26:40;;;;;;;19.95;12.60;;;;;;;19.51;100.00;-18551.88;5096653;28;21798;-77
2023/08/08 07:29:05;;;;;;;17.83;10.63;;;;;;;19.53;100.00;-18552.44;5102125;28;20032;-79
2023/08/08 07:31:31;;;;;;;17.45;10.80;;;;;;;19.35;100.00;-18547.66;5103343;28;20035;-77
2023/08/08 07:33:57;;;;;;;16.98;9.20;;;;;;;19.34;100.00;-18547.25;5084260;28;20067;-78
2023/08/08 07:36:22;;;;;;;18.73;8.90;;;;;;;19.29;100.00;-18545.88;5103816;28;20414;-79
2023/08/08 07:38:47;;;;;;;17.52;10.25;;;;;;;19.56;100.00;-18553.09;5102142;28;20036;-77
2023/08/08 07:41:13;;;;;;;16.02;8.88;;;;;;;19.67;100.00;-18555.97;5102314;28;20487;-78
2023/08/08 07:43:38;;;;;;;13.77;8.77;;;;;;;19.76;100.00;-18558.41;5104223;28;20032;-78
2023/08/08 07:46:04;;;;;;;15.65;8.80;;;;;;;19.82;100.00;-18560.19;5096704;28;20036;-79
2023/08/08 07:48:29;;;;;;;19.73;8.48;;;;;;;19.81;100.00;-18559.78;5103733;28;20050;-76
2023/08/08 07:50:55;;;;;;;14.48;7.38;;;;;;;20.02;100.00;-18565.50;5100090;28;20574;-78
2023/08/08 07:53:20;;;;;;;12.20;6.93;;;;;;;19.93;100.00;-18563.06;5101299;28;20046;-78
2023/08/08 07:55:45;;;;;;;10.55;5.38;;;;;;;20.18;100.00;-18569.59;5099731;28;20155;-77
2023/08/08 07:58:11;;;;;;;9.32;4.55;;;;;;;20.12;100.00;-18568.09;5089351;28;20379;-78
2023/08/08 08:00:38;;;;;;;9.90;4.20;;;;;;;19.99;100.00;-18564.69;5096675;28;20036;-78
2023/08/08 08:03:04;;;;;;;10.55;3.90;;;;;;;20.03;100.00;-18565.63;5105990;28;20054;-78
2023/08/08 08:05:29;;;;;;;12.00;4.53;;;;;;;20.33;100.00;-18573.66;5102793;28;20495;-78
2023/08/08 08:07:54;;;;;;;6.82;3.45;;;;;;;20.38;100.00;-18574.91;5107010;28;20059;-77
2023/08/08 08:10:20;;;;;;;8.02;3.92;;;;;;;20.43;100.00;-18576.41;5084538;28;20289;-79
2023/08/08 08:12:45;;;;;;;7.32;3.30;;;;;;;20.58;100.00;-18580.22;5106171;28;20043;-78
2023/08/08 08:15:11;;;;;;;6.28;3.28;;;;;;;20.68;100.00;-18582.94;5106230;28;20557;-77
2023/08/08 08:17:36;;;;;;;5.85;2.72;;;;;;;20.73;100.00;-18584.41;5103846;28;20495;-78
2023/08/08 08:20:08;;;;;;;10.45;2.95;;;;;;;20.72;100.00;-18584.00;5105652;28;20048;-76
2023/08/08 08:22:34;;;;;;;5.65;2.15;;;;;;;20.58;100.00;-18580.22;5104231;28;20039;-77
2023/08/08 08:25:00;;;;;;;5.80;2.22;;;;;;;20.61;100.00;-18581.03;5103334;28;20060;-77
2023/08/08 08:27:25;;;;;;;6.68;2.42;;;;;;;20.80;100.00;-18586.06;5104314;28;20043;-77
2023/08/08 08:29:50;;;;;;;9.00;1.98;;;;;;;20.82;100.00;-18586.72;5105369;28;20044;-76
2023/08/08 08:32:16;;;;;;;5.05;1.77;;;;;;;20.90;100.00;-18588.91;5105339;28;20040;-77
2023/08/08 08:34:41;;;;;;;4.13;1.85;;;;;;;21.11;100.00;-18594.34;5102478;28;20031;-76
2023/08/08 08:37:07;;;;;;;6.38;1.90;;;;;;;21.04;100.00;-18592.59;5105194;28;20144;-77
2023/08/08 08:39:32;;;;;;;3.72;1.45;;;;;;;21.02;100.00;-18591.91;5102967;28;20036;-77
2023/08/08 08:42:03;;;;;;;5.32;1.70;;;;;;;20.77;100.00;-18585.38;5092177;28;20068;-77
2023/08/08 08:44:31;;;;;;;3.40;1.65;;;;;;;20.91;98.04;-18589.19;5104919;28;20043;-77
2023/08/08 08:47:01;;;;;;;5.72;1.70;;;;;;;20.82;95.25;-18586.72;5103123;28;20059;-79
2023/08/08 08:49:29;;;;;;;5.20;1.67;;;;;;;21.03;92.15;-18592.31;5102281;28;20047;-78
2023/08/08 08:51:56;;;;;;;4.82;1.40;;;;;;;21.30;90.15;-18599.38;5102943;28;20039;-80
2023/08/08 08:54:22;;;;;;;5.57;1.50;;;;;;;21.25;88.04;-18598.16;5086061;28;20599;-77
2023/08/08 08:56:48;;;;;;;5.75;1.83;;;;;;;21.52;90.96;-18605.22;5104680;28;20249;-78
2023/08/08 08:59:13;;;;;;;4.75;2.38;;;;;;;21.51;86.59;-18605.09;5097680;28;20522;-79
2023/08/08 09:01:39;;;;;;;3.38;1.27;;;;;;;21.33;83.31;-18600.19;5103062;28;20039;-78
2023/08/08 09:04:07;;;;;;;8.20;1.55;;;;;;;21.58;85.44;-18607.00;5104616;28;20430;-77
2023/08/08 09:06:33;;;;;;;1.83;1.05;;;;;;;21.49;78.35;-18604.41;5103054;28;20044;-79
2023/08/08 09:08:58;;;;;;;5.03;1.00;;;;;;;21.60;80.22;-18607.53;5101967;28;20508;-77
2023/08/08 09:11:25;;;;;;;4.30;1.20;;;;;;;21.69;75.19;-18609.84;5103782;28;20036;-77
2023/08/08 09:13:50;;;;;;;2.50;1.05;;;;;;;21.74;74.38;-18611.22;5105628;28;20074;-78
2023/08/08 09:16:16;;;;;;;3.22;1.20;;;;;;;21.91;73.92;-18615.56;5107279;28;20063;-78
2023/08/08 09:18:42;;;;;;;3.40;1.20;;;;;;;21.88;70.68;-18614.75;5101124;28;20035;-78
2023/08/08 09:21:08;;;;;;;3.45;0.90;;;;;;;22.01;73.70;-18618.28;5105547;28;20039;-76
2023/08/08 09:23:33;;;;;;;2.25;0.80;;;;;;;21.94;69.28;-18616.38;5104465;28;20038;-79
2023/08/08 09:25:59;;;;;;;4.93;1.15;;;;;;;22.05;68.94;-18619.38;5105457;28;20132;-78
2023/08/08 09:28:25;;;;;;;6.03;1.27;;;;;;;21.75;73.04;-18611.47;5104749;28;20044;-79
2023/08/08 09:30:51;;;;;;;2.25;0.93;;;;;;;21.72;74.56;-18610.66;5104589;28;20059;-80
2023/08/08 09:33:18;;;;;;;4.20;0.80;;;;;;;21.92;69.73;-18615.81;5105117;28;20039;-79
2023/08/08 09:35:44;;;;;;;4.82;1.05;;;;;;;22.16;67.10;-18622.34;5099952;28;20127;-78
2023/08/08 09:38:09;;;;;;;3.60;0.90;;;;;;;22.17;67.88;-18622.50;5097943;27;20040;-78
2023/08/08 09:40:35;;;;;;;2.53;0.85;;;;;;;22.29;67.28;-18625.75;5101003;28;21043;-79
2023/08/08 09:43:00;;;;;;;4.78;1.27;;;;;;;22.33;67.38;-18626.84;5103233;28;20272;-78
2023/08/08 09:45:25;;;;;;;4.22;1.45;;;;;;;22.48;66.86;-18630.91;5103715;28;20606;-77
2023/08/08 09:47:52;;;;;;;3.40;0.75;;;;;;;22.38;67.38;-18628.06;5101809;28;20068;-78
2023/08/08 09:50:18;;;;;;;3.33;0.90;;;;;;;22.17;63.42;-18622.63;5103728;28;20032;-77
2023/08/08 09:52:44;;;;;;;1.27;0.50;;;;;;;22.21;62.41;-18623.56;5104532;28;20071;-78
2023/08/08 09:55:11;;;;;;;3.70;0.65;;;;;;;22.30;60.97;-18626.03;5104046;28;20078;-77
2023/08/08 09:57:38;;;;;;;1.95;0.73;;;;;;;22.63;62.04;-18634.84;5103062;28;20100;-79
2023/08/08 10:00:05;;;;;;;4.45;0.70;;;;;;;22.47;60.42;-18630.50;5087764;28;20057;-77
2023/08/08 10:02:32;;;;;;;1.60;0.60;;;;;;;22.52;61.25;-18631.84;5103501;28;20043;-79
2023/08/08 10:05:02;;;;;;;1.75;0.60;;;;;;;22.16;60.80;-18622.34;5101610;27;20053;-79
2023/08/08 10:07:27;;;;;;;2.28;0.70;;;;;;;22.33;62.00;-18626.69;5092775;28;20039;-77
2023/08/08 10:09:52;;;;;;;1.33;0.40;;;;;;;22.73;62.42;-18637.44;5086623;28;20078;-79
2023/08/08 10:12:18;;;;;;;1.95;0.50;;;;;;;22.45;59.13;-18629.97;5105219;28;20493;-77
2023/08/08 10:14:48;;;;;;;3.83;1.15;;;;;;;22.46;61.13;-18630.38;5102927;28;20044;-79
2023/08/08 10:17:15;;;;;;;3.17;0.70;;;;;;;22.64;58.90;-18635.13;5096691;28;20040;-80
2023/08/08 10:19:53;;;;;;;0.65;0.50;;;;;;;22.72;57.20;-18637.28;5096895;28;20047;-78
2023/08/08 10:22:23;;;;;;;3.50;1.17;;;;;;;22.35;61.20;-18627.25;5103294;28;20111;-80
2023/08/08 10:24:53;;;;;;;1.15;0.60;;;;;;;22.52;60.38;-18632.00;5098360;28;20040;-79
2023/08/08 10:27:29;;;;;;;2.17;0.77;;;;;;;22.59;57.34;-18633.63;5103090;28;20104;-77
2023/08/08 10:30:10;;;;;;;5.95;0.63;;;;;;;22.59;56.73;-18633.75;5099962;28;20554;-78
2023/08/08 10:32:48;;;;;;;2.47;0.73;;;;;;;22.72;56.83;-18637.16;5103915;28;20036;-79
2023/08/08 10:35:14;;;;;;;1.52;0.50;;;;;;;22.79;57.33;-18639.06;5097106;28;20515;-77
2023/08/08 10:37:51;;;;;;;2.22;0.60;;;;;;;22.79;58.63;-18638.91;5103919;28;20499;-79
2023/08/08 10:40:18;;;;;;;2.42;0.68;;;;;;;22.97;54.61;-18643.81;5085452;28;20494;-78
2023/08/08 10:42:45;;;;;;;1.00;0.57;;;;;;;22.86;55.41;-18640.94;5100247;28;20047;-78
2023/08/08 10:45:15;;;;;;;3.58;1.00;;;;;;;23.03;54.04;-18645.44;5097004;28;20028;-79
2023/08/08 10:47:41;;;;;;;1.40;0.50;;;;;;;23.32;53.12;-18653.16;5097365;28;20065;-78
2023/08/08 10:50:09;;;;;;;1.33;0.47;;;;;;;23.28;53.48;-18652.09;5100776;28;20058;-78
2023/08/08 10:52:49;;;;;;;3.08;0.60;;;;;;;23.25;52.71;-18651.28;5101141;28;20047;-78
2023/08/08 10:55:23;;;;;;;0.95;0.40;;;;;;;23.98;50.14;-18670.53;5103820;28;20111;-78
2023/08/08 10:58:08;;;;;;;2.75;0.50;;;;;;;23.50;49.76;-18657.91;5102986;28;20039;-80
2023/08/08 11:00:35;;;;;;;2.80;0.50;;;;;;;23.97;50.02;-18670.41;5077390;28;20085;-77
2023/08/08 11:03:04;;;;;;;0.43;0.30;;;;;;;23.92;47.86;-18669.03;5101735;28;20032;-79
2023/08/08 11:05:31;;;;;;;2.05;0.55;;;;;;;23.93;47.72;-18669.31;5103464;28;20534;-80
2023/08/08 11:07:56;;;;;;;1.67;0.47;;;;;;;23.63;50.27;-18661.44;5104982;28;20055;-78